Time;durP1;ratioP1;P1;durP2;ratioP2;P2;SDS_P1;SDS_P2;PMS_P1;PMS_P2;Temp;Humidity;BMP_temperature;BMP_pressure;BME280_temperature;BME280_humidity;BME280_pressure;Samples;Min_cycle;Max_cycle;Signal;HPM_P1;HPM_P2
2023/06/19 00:01:48;;;;;;;5.60;5.10;;;23.80;69.90;;;;;;5041255;28;20036;-82
2023/06/19 00:04:13;;;;;;;6.20;5.60;;;23.80;70.00;;;;;;5075208;28;20035;-82
2023/06/19 00:06:39;;;;;;;6.63;5.93;;;23.80;70.20;;;;;;5075172;28;20111;-83
2023/06/19 00:09:06;;;;;;;8.43;5.57;;;23.80;70.30;;;;;;5040686;28;20025;-83
2023/06/19 00:11:32;;;;;;;6.03;5.43;;;23.80;70.40;;;;;;5057095;28;20024;-82
2023/06/19 00:13:57;;;;;;;5.40;4.90;;;23.80;70.50;;;;;;5047913;28;20052;-83
2023/06/19 00:16:24;;;;;;;6.65;5.25;;;23.80;70.60;;;;;;5033941;28;20475;-82
2023/06/19 00:18:51;;;;;;;5.85;4.78;;;23.80;70.80;;;;;;5033960;28;20424;-83
2023/06/19 00:21:17;;;;;;;6.05;4.90;;;23.80;71.00;;;;;;5017473;28;20030;-83
2023/06/19 00:23:42;;;;;;;5.05;4.55;;;23.80;71.10;;;;;;5017145;28;20018;-82
2023/06/19 00:26:08;;;;;;;5.68;4.97;;;23.80;71.30;;;;;;5017348;28;20379;-82
2023/06/19 00:28:34;;;;;;;6.25;4.75;;;23.80;71.40;;;;;;5034775;28;20033;-82
2023/06/19 00:31:00;;;;;;;5.55;4.90;;;23.80;71.70;;;;;;5016968;28;20035;-82
2023/06/19 00:33:25;;;;;;;5.35;4.50;;;23.80;71.80;;;;;;5016992;28;20022;-82
2023/06/19 00:35:51;;;;;;;5.47;4.38;;;23.80;72.00;;;;;;5033487;28;20467;-82
2023/06/19 00:38:17;;;;;;;5.60;5.00;;;23.80;72.10;;;;;;5033451;28;20037;-83
2023/06/19 00:40:42;;;;;;;4.95;4.45;;;23.70;72.30;;;;;;5016880;28;20029;-83
2023/06/19 00:43:08;;;;;;;5.80;4.90;;;23.80;72.30;;;;;;5033442;28;20109;-84
2023/06/19 00:45:36;;;;;;;6.90;5.28;;;23.80;72.50;;;;;;5016728;28;20018;-83
2023/06/19 00:48:04;;;;;;;6.28;5.28;;;23.80;72.60;;;;;;5017257;28;20364;-83
2023/06/19 00:50:30;;;;;;;5.53;5.00;;;23.80;72.80;;;;;;5016600;28;20103;-83
2023/06/19 00:52:57;;;;;;;6.00;4.70;;;23.80;72.90;;;;;;5033170;28;20125;-82
2023/06/19 00:55:26;;;;;;;4.90;4.38;;;23.80;72.90;;;;;;5032849;28;20414;-82
2023/06/19 00:57:53;;;;;;;5.43;4.63;;;23.80;73.00;;;;;;5033758;28;20065;-83
2023/06/19 01:00:18;;;;;;;5.28;4.40;;;23.80;73.10;;;;;;5033179;28;20030;-83
2023/06/19 01:02:49;;;;;;;5.32;4.43;;;23.80;73.10;;;;;;5016688;28;20075;-83
2023/06/19 01:05:16;;;;;;;5.28;4.60;;;23.80;73.70;;;;;;5034710;28;20025;-82
2023/06/19 01:08:02;;;;;;;5.03;4.30;;;23.70;73.10;;;;;;5017113;28;20029;-82
2023/06/19 01:10:33;;;;;;;5.35;4.38;;;23.70;73.20;;;;;;5033659;28;20121;-83
2023/06/19 01:13:05;;;;;;;5.50;4.45;;;23.70;73.30;;;;;;5035214;28;20068;-83
2023/06/19 01:15:31;;;;;;;5.13;4.47;;;23.70;73.30;;;;;;5038527;28;20049;-82
2023/06/19 01:18:00;;;;;;;5.32;4.28;;;23.70;73.40;;;;;;5057294;28;20049;-83
2023/06/19 01:20:26;;;;;;;5.25;4.68;;;23.70;73.60;;;;;;5040992;28;20018;-82
2023/06/19 01:22:51;;;;;;;4.90;4.40;;;23.70;74.20;;;;;;5057466;28;20017;-82
2023/06/19 01:25:17;;;;;;;4.35;3.95;;;23.60;73.60;;;;;;5024112;28;20017;-82
2023/06/19 01:27:43;;;;;;;5.70;4.10;;;23.60;73.60;;;;;;5035880;28;20033;-82
2023/06/19 01:30:11;;;;;;;4.38;3.85;;;23.60;73.60;;;;;;5033145;28;20471;-82
2023/06/19 01:32:45;;;;;;;4.50;4.10;;;23.60;74.30;;;;;;5033157;28;20029;-82
2023/06/19 01:35:12;;;;;;;5.38;4.20;;;23.60;73.60;;;;;;5033896;28;20025;-82
2023/06/19 01:37:41;;;;;;;4.95;4.00;;;23.70;73.60;;;;;;5033514;28;20037;-81
2023/06/19 01:40:09;;;;;;;4.45;3.92;;;23.70;73.60;;;;;;5032535;28;20439;-82
2023/06/19 01:42:40;;;;;;;6.35;4.20;;;23.60;73.70;;;;;;5015724;28;20471;-82
2023/06/19 01:45:07;;;;;;;4.57;4.15;;;23.60;73.70;;;;;;5033671;28;20025;-82
2023/06/19 01:47:33;;;;;;;4.43;3.80;;;23.60;73.80;;;;;;5033156;28;20536;-82
2023/06/19 01:49:59;;;;;;;4.13;3.70;;;23.50;73.80;;;;;;5031927;28;20033;-82
2023/06/19 01:52:25;;;;;;;4.50;3.58;;;23.50;74.00;;;;;;4999665;28;20037;-82
2023/06/19 01:54:51;;;;;;;4.40;4.00;;;23.40;74.00;;;;;;5032142;28;20249;-82
2023/06/19 01:57:17;;;;;;;5.40;3.97;;;23.40;74.10;;;;;;5032105;28;20025;-83
2023/06/19 01:59:43;;;;;;;3.97;3.67;;;23.40;74.20;;;;;;5015592;28;20507;-82
2023/06/19 02:02:10;;;;;;;4.13;3.72;;;23.40;74.30;;;;;;5015983;28;20116;-83
2023/06/19 02:04:35;;;;;;;4.28;3.78;;;23.30;74.30;;;;;;5015652;28;20036;-82
2023/06/19 02:07:01;;;;;;;4.35;3.90;;;23.30;74.40;;;;;;5015856;28;20469;-83
2023/06/19 02:09:27;;;;;;;4.60;3.95;;;23.30;74.60;;;;;;5033382;28;20032;-82
2023/06/19 02:11:53;;;;;;;5.05;3.95;;;23.30;74.90;;;;;;5019601;28;20056;-82
2023/06/19 02:14:19;;;;;;;4.47;3.47;;;23.20;74.90;;;;;;5054112;28;20052;-82
2023/06/19 02:16:44;;;;;;;3.97;3.58;;;23.20;75.00;;;;;;5076092;28;20470;-82
2023/06/19 02:19:11;;;;;;;5.93;4.05;;;23.20;75.10;;;;;;5059299;28;20047;-83
2023/06/19 02:21:37;;;;;;;4.22;3.83;;;23.20;75.40;;;;;;5058999;28;20074;-83
2023/06/19 02:24:03;;;;;;;5.50;3.58;;;23.10;75.50;;;;;;5077241;28;20025;-83
2023/06/19 02:26:29;;;;;;;4.57;4.10;;;23.10;75.60;;;;;;5058316;28;20027;-82
2023/06/19 02:28:55;;;;;;;6.10;3.72;;;23.10;75.90;;;;;;5076551;28;20032;-83
2023/06/19 02:31:22;;;;;;;4.00;3.25;;;23.00;76.20;;;;;;5059148;28;20025;-82
2023/06/19 02:33:48;;;;;;;3.65;3.33;;;22.90;76.40;;;;;;5058990;28;20558;-83
2023/06/19 02:36:19;;;;;;;4.32;3.38;;;22.90;76.60;;;;;;5058863;28;20052;-83
2023/06/19 02:38:48;;;;;;;4.13;3.60;;;22.80;77.00;;;;;;5058722;28;20033;-83
2023/06/19 02:41:14;;;;;;;3.83;3.20;;;22.80;77.20;;;;;;5059068;28;20021;-82
2023/06/19 02:43:44;;;;;;;3.83;3.22;;;22.70;77.40;;;;;;5058924;28;20028;-82
2023/06/19 02:46:09;;;;;;;3.95;2.90;;;22.70;77.70;;;;;;5058882;28;20033;-83
2023/06/19 02:48:35;;;;;;;4.22;3.20;;;22.70;77.80;;;;;;5058763;28;20385;-82
2023/06/19 02:51:01;;;;;;;2.50;2.30;;;22.60;78.00;;;;;;5058901;28;20032;-82
2023/06/19 02:53:26;;;;;;;3.70;3.08;;;22.60;78.20;;;;;;5059032;28;20021;-83
2023/06/19 02:55:52;;;;;;;2.95;2.60;;;22.60;78.40;;;;;;5076521;28;20524;-82
2023/06/19 02:58:18;;;;;;;3.38;2.78;;;22.60;78.60;;;;;;5059060;28;20371;-82
2023/06/19 03:00:44;;;;;;;4.13;2.75;;;22.50;78.80;;;;;;5076479;28;20042;-82
2023/06/19 03:03:11;;;;;;;2.80;2.50;;;22.50;79.20;;;;;;5058354;28;20036;-82
2023/06/19 03:05:37;;;;;;;2.92;2.50;;;22.50;79.30;;;;;;5076742;28;20116;-82
2023/06/19 03:08:02;;;;;;;4.00;2.85;;;22.40;79.30;;;;;;5058643;28;20111;-83
2023/06/19 03:10:28;;;;;;;4.63;2.88;;;22.40;79.50;;;;;;5058661;28;20432;-82
2023/06/19 03:12:54;;;;;;;3.35;2.60;;;22.40;79.80;;;;;;5060355;28;20029;-83
2023/06/19 03:15:19;;;;;;;3.05;2.60;;;22.40;80.00;;;;;;5061374;28;20075;-82
2023/06/19 03:17:45;;;;;;;4.00;2.88;;;22.30;80.10;;;;;;5065871;28;20032;-83
2023/06/19 03:20:14;;;;;;;3.08;2.50;;;22.30;80.20;;;;;;5062157;28;20020;-82
2023/06/19 03:22:41;;;;;;;3.00;2.70;;;22.30;80.30;;;;;;5099733;28;20041;-82
2023/06/19 03:25:08;;;;;;;3.67;2.60;;;22.30;80.60;;;;;;5100599;28;20023;-82
2023/06/19 03:27:34;;;;;;;4.22;2.75;;;22.30;80.80;;;;;;5100381;28;20008;-83
2023/06/19 03:29:59;;;;;;;2.58;2.25;;;22.30;80.90;;;;;;5077733;28;20056;-82
2023/06/19 03:32:25;;;;;;;3.75;2.15;;;22.30;81.00;;;;;;5062015;28;20466;-82
2023/06/19 03:34:51;;;;;;;2.50;2.30;;;22.30;81.00;;;;;;5058466;28;20056;-83
2023/06/19 03:37:17;;;;;;;2.33;2.03;;;22.30;81.10;;;;;;5076186;28;20028;-83
2023/06/19 03:39:43;;;;;;;2.25;2.00;;;22.30;81.30;;;;;;5040961;28;20029;-82
2023/06/19 03:42:08;;;;;;;2.78;2.45;;;22.30;81.40;;;;;;5058088;28;20465;-82
2023/06/19 03:44:34;;;;;;;2.47;2.15;;;22.30;81.60;;;;;;5076187;28;20032;-82
2023/06/19 03:47:00;;;;;;;2.08;1.90;;;22.30;81.70;;;;;;5057941;28;20074;-82
2023/06/19 03:49:26;;;;;;;2.60;2.40;;;22.30;81.80;;;;;;5040978;28;20029;-82
2023/06/19 03:51:54;;;;;;;2.80;2.30;;;22.20;81.90;;;;;;5057498;28;20478;-83
2023/06/19 03:54:20;;;;;;;2.13;1.92;;;22.20;82.10;;;;;;5041554;28;20095;-82
2023/06/19 03:56:45;;;;;;;3.35;2.20;;;22.20;82.20;;;;;;5040659;28;20421;-82
2023/06/19 03:59:11;;;;;;;2.33;1.92;;;22.20;82.30;;;;;;5040937;28;20029;-83
2023/06/19 04:01:37;;;;;;;2.72;2.00;;;22.20;82.50;;;;;;5057578;28;20032;-83
2023/06/19 04:04:02;;;;;;;2.15;1.95;;;22.20;82.50;;;;;;5057328;28;20028;-82
2023/06/19 04:06:28;;;;;;;2.78;2.20;;;22.20;82.60;;;;;;5057380;28;20497;-83
2023/06/19 04:08:54;;;;;;;2.67;2.30;;;22.20;82.70;;;;;;5057544;28;20028;-82
2023/06/19 04:11:20;;;;;;;2.00;1.80;;;22.20;82.80;;;;;;5057706;28;20040;-82
2023/06/19 04:13:46;;;;;;;2.78;2.17;;;22.20;82.80;;;;;;5057027;28;20060;-82
2023/06/19 04:16:12;;;;;;;3.35;2.20;;;22.30;83.00;;;;;;5057383;28;20024;-83
2023/06/19 04:18:38;;;;;;;1.98;1.75;;;22.20;83.00;;;;;;5056891;28;20089;-82
2023/06/19 04:21:04;;;;;;;2.90;2.08;;;22.30;83.10;;;;;;5074500;28;20082;-83
2023/06/19 04:23:29;;;;;;;2.30;1.73;;;22.20;83.20;;;;;;5057020;28;20063;-82
2023/06/19 04:25:55;;;;;;;2.53;1.95;;;22.30;83.30;;;;;;5073278;28;20024;-82
2023/06/19 04:28:21;;;;;;;4.57;2.70;;;22.30;83.40;;;;;;5074724;28;20028;-82
2023/06/19 04:30:49;;;;;;;2.35;2.05;;;22.30;83.60;;;;;;5074437;28;20032;-82
2023/06/19 04:33:15;;;;;;;2.50;2.25;;;22.30;83.70;;;;;;5040044;28;20135;-82
2023/06/19 04:35:41;;;;;;;2.30;1.90;;;22.20;83.80;;;;;;5040197;28;20509;-82
2023/06/19 04:38:08;;;;;;;2.60;2.15;;;22.20;84.00;;;;;;5074500;28;20068;-82
2023/06/19 04:40:33;;;;;;;2.35;2.15;;;22.30;84.20;;;;;;5074773;28;20029;-83
2023/06/19 04:43:02;;;;;;;2.55;2.10;;;22.30;84.20;;;;;;5074176;28;20020;-82
2023/06/19 04:45:28;;;;;;;2.92;2.30;;;22.30;84.30;;;;;;5056618;28;20021;-81
2023/06/19 04:47:53;;;;;;;2.95;2.65;;;22.30;85.10;;;;;;5039891;28;20131;-82
2023/06/19 04:50:22;;;;;;;3.85;2.55;;;22.30;84.60;;;;;;5056391;28;20024;-83
2023/06/19 04:52:50;;;;;;;2.70;2.25;;;22.20;84.70;;;;;;5074538;28;20024;-83
2023/06/19 04:55:16;;;;;;;2.90;2.60;;;22.20;84.80;;;;;;5056226;28;20454;-82
2023/06/19 04:57:41;;;;;;;3.00;2.45;;;22.30;85.20;;;;;;5073894;28;20039;-83
2023/06/19 05:00:09;;;;;;;2.88;2.63;;;22.20;85.10;;;;;;5074211;28;20090;-82
2023/06/19 05:02:36;;;;;;;3.35;2.58;;;22.20;85.30;;;;;;5056375;28;20118;-82
2023/06/19 05:05:02;;;;;;;4.90;2.28;;;22.20;85.40;;;;;;5074261;28;20035;-82
2023/06/19 05:07:28;;;;;;;3.50;2.75;;;22.20;85.50;;;;;;5056270;28;20115;-82
2023/06/19 05:09:54;;;;;;;3.35;2.47;;;22.30;85.60;;;;;;5039673;28;20016;-82
2023/06/19 05:12:20;;;;;;;2.70;2.50;;;22.30;85.70;;;;;;5074865;28;20492;-83
2023/06/19 05:14:45;;;;;;;3.60;2.78;;;22.20;85.80;;;;;;5053604;28;20057;-83
2023/06/19 05:17:11;;;;;;;3.90;3.00;;;22.20;85.90;;;;;;5056202;28;20040;-83
2023/06/19 05:19:36;;;;;;;4.88;3.28;;;22.20;86.10;;;;;;5029005;28;20100;-82
2023/06/19 05:22:02;;;;;;;4.07;2.90;;;22.20;86.20;;;;;;5077475;28;20009;-82
2023/06/19 05:24:28;;;;;;;3.17;2.60;;;22.20;86.30;;;;;;5077340;28;20096;-82
2023/06/19 05:26:53;;;;;;;3.10;2.83;;;22.30;86.30;;;;;;5076775;28;20024;-82
2023/06/19 05:29:19;;;;;;;3.33;2.97;;;22.20;86.50;;;;;;5075746;28;20056;-82
2023/06/19 05:31:44;;;;;;;5.05;3.00;;;22.20;86.60;;;;;;5055145;28;20049;-83
2023/06/19 05:34:10;;;;;;;3.33;3.03;;;22.20;86.90;;;;;;5054949;28;20127;-82
2023/06/19 05:36:36;;;;;;;3.63;2.78;;;22.20;87.10;;;;;;5054340;28;20021;-82
2023/06/19 05:39:01;;;;;;;3.72;3.13;;;22.20;87.30;;;;;;5052227;28;20033;-82
2023/06/19 05:41:27;;;;;;;5.25;3.08;;;22.20;87.40;;;;;;5035850;28;20040;-83
2023/06/19 05:43:53;;;;;;;4.53;3.60;;;22.20;87.50;;;;;;5019281;28;20025;-82
2023/06/19 05:46:18;;;;;;;5.07;3.67;;;22.20;87.60;;;;;;5052148;28;20065;-82
2023/06/19 05:48:44;;;;;;;3.55;3.25;;;22.20;87.80;;;;;;5052412;28;20040;-82
2023/06/19 05:51:10;;;;;;;5.40;3.47;;;22.20;87.80;;;;;;5052187;28;20033;-83
2023/06/19 05:53:35;;;;;;;4.72;3.78;;;22.20;87.90;;;;;;5052259;28;20082;-83
2023/06/19 05:56:01;;;;;;;3.83;3.42;;;22.20;87.90;;;;;;5018973;28;20033;-82
2023/06/19 05:58:27;;;;;;;6.00;3.85;;;22.30;87.90;;;;;;5035408;28;20033;-83
2023/06/19 06:00:57;;;;;;;5.47;4.50;;;22.40;87.80;;;;;;5002705;28;20029;-83
2023/06/19 06:03:24;;;;;;;4.45;4.05;;;22.40;87.90;;;;;;5051836;28;20028;-82
2023/06/19 06:05:51;;;;;;;6.00;4.15;;;22.40;88.00;;;;;;5035820;28;20029;-82
2023/06/19 06:08:19;;;;;;;4.80;4.40;;;22.40;87.80;;;;;;5052060;28;20033;-82
2023/06/19 06:10:44;;;;;;;5.18;4.05;;;22.40;87.90;;;;;;5051979;28;20025;-82
2023/06/19 06:13:12;;;;;;;5.80;4.88;;;22.40;87.80;;;;;;5002428;28;20050;-82
2023/06/19 06:15:38;;;;;;;5.30;4.80;;;22.40;88.00;;;;;;5016429;28;20049;-82
2023/06/19 06:18:03;;;;;;;5.18;4.68;;;22.40;88.00;;;;;;5033151;28;20407;-82
2023/06/19 06:20:32;;;;;;;4.57;4.18;;;22.50;88.10;;;;;;5031870;28;20087;-83
2023/06/19 06:22:58;;;;;;;6.60;5.07;;;22.50;88.10;;;;;;5032016;28;20422;-82
2023/06/19 06:25:23;;;;;;;6.07;4.80;;;22.50;88.20;;;;;;5015749;28;20028;-83
2023/06/19 06:27:49;;;;;;;4.30;3.90;;;22.60;88.20;;;;;;4999295;28;20042;-82
2023/06/19 06:30:18;;;;;;;4.40;4.00;;;22.60;88.20;;;;;;4999181;28;20049;-82
2023/06/19 06:32:43;;;;;;;4.60;4.20;;;22.60;88.10;;;;;;5015378;28;20084;-82
2023/06/19 06:35:09;;;;;;;5.45;4.22;;;22.50;88.10;;;;;;5032118;28;20017;-83
2023/06/19 06:37:35;;;;;;;4.80;4.30;;;22.50;88.10;;;;;;5031868;28;20026;-83
2023/06/19 06:40:01;;;;;;;4.78;4.38;;;22.60;88.20;;;;;;4998872;28;20132;-82
2023/06/19 06:42:26;;;;;;;4.65;4.20;;;22.60;88.10;;;;;;5033376;28;20100;-82
2023/06/19 06:44:52;;;;;;;5.00;4.32;;;22.60;88.10;;;;;;5031699;28;20030;-82
2023/06/19 06:47:18;;;;;;;5.40;4.35;;;22.60;88.20;;;;;;5032713;28;20033;-82
2023/06/19 06:49:43;;;;;;;4.65;4.25;;;22.60;88.20;;;;;;5032785;28;20026;-82
2023/06/19 06:52:09;;;;;;;5.80;4.35;;;22.60;88.20;;;;;;5031456;28;20041;-83
2023/06/19 06:54:35;;;;;;;6.22;4.53;;;22.60;88.20;;;;;;5014837;28;20029;-83
2023/06/19 06:57:00;;;;;;;5.47;4.57;;;22.50;88.20;;;;;;5035089;28;20033;-83
2023/06/19 06:59:26;;;;;;;5.50;3.97;;;22.50;88.30;;;;;;5036653;28;20458;-82
2023/06/19 07:01:54;;;;;;;5.57;3.90;;;22.50;88.30;;;;;;5036673;28;20022;-83
2023/06/19 07:04:20;;;;;;;5.38;4.30;;;22.60;88.30;;;;;;5035211;28;20494;-83
2023/06/19 07:06:46;;;;;;;4.78;4.38;;;22.60;88.30;;;;;;5035479;28;20064;-82
2023/06/19 07:09:12;;;;;;;7.13;4.68;;;22.60;88.10;;;;;;5019032;28;20049;-82
2023/06/19 07:11:40;;;;;;;5.55;4.45;;;22.60;88.10;;;;;;5019301;28;20026;-83
2023/06/19 07:14:06;;;;;;;4.53;4.05;;;22.70;88.20;;;;;;5035503;28;20046;-82
2023/06/19 07:16:31;;;;;;;5.05;4.28;;;22.80;88.10;;;;;;5036928;28;20028;-82
2023/06/19 07:18:57;;;;;;;5.70;5.20;;;22.90;88.00;;;;;;5037814;28;20033;-83
2023/06/19 07:21:23;;;;;;;5.88;4.80;;;22.90;87.80;;;;;;5043544;28;20045;-82
2023/06/19 07:23:49;;;;;;;4.93;4.45;;;22.90;87.60;;;;;;5059616;28;20018;-82
2023/06/19 07:26:15;;;;;;;4.70;4.10;;;22.90;87.50;;;;;;5060194;28;20049;-82
2023/06/19 07:28:42;;;;;;;4.53;4.13;;;22.90;87.40;;;;;;5043127;28;20010;-82
2023/06/19 07:31:08;;;;;;;4.63;4.20;;;22.90;87.10;;;;;;5059686;28;20018;-82
2023/06/19 07:33:34;;;;;;;5.82;5.05;;;22.90;86.80;;;;;;5054960;28;20049;-81
2023/06/19 07:36:02;;;;;;;5.40;4.78;;;22.90;86.40;;;;;;5036045;28;20025;-82
2023/06/19 07:38:28;;;;;;;5.20;4.70;;;22.90;86.20;;;;;;5019228;28;20101;-83
2023/06/19 07:40:53;;;;;;;5.15;4.07;;;23.00;85.90;;;;;;5034898;28;20045;-83
2023/06/19 07:43:22;;;;;;;5.30;4.80;;;23.00;85.70;;;;;;5018211;28;20022;-83
2023/06/19 07:45:48;;;;;;;5.65;4.82;;;23.00;85.20;;;;;;5034925;28;20030;-83
2023/06/19 07:48:14;;;;;;;5.45;4.95;;;23.10;85.00;;;;;;5035628;28;20100;-82
2023/06/19 07:50:40;;;;;;;5.65;5.15;;;23.20;84.90;;;;;;5001367;28;20068;-83
2023/06/19 07:53:05;;;;;;;6.40;4.72;;;23.20;84.40;;;;;;5034257;28;20101;-82
2023/06/19 07:55:34;;;;;;;6.10;5.50;;;23.20;84.20;;;;;;5034435;28;20077;-83
2023/06/19 07:58:00;;;;;;;7.03;5.50;;;23.20;84.00;;;;;;5034338;28;20037;-83
2023/06/19 08:00:26;;;;;;;6.53;5.93;;;23.20;83.50;;;;;;5034555;28;20029;-82
2023/06/19 08:02:51;;;;;;;6.30;5.65;;;23.20;83.30;;;;;;5017775;28;20352;-83
2023/06/19 08:05:17;;;;;;;6.32;5.72;;;23.30;83.30;;;;;;5017904;28;20103;-82
2023/06/19 08:07:43;;;;;;;7.20;6.00;;;23.30;83.10;;;;;;5033213;28;20029;-82
2023/06/19 08:10:09;;;;;;;6.75;5.35;;;23.30;82.60;;;;;;5034236;28;20493;-82
2023/06/19 08:12:37;;;;;;;6.15;5.55;;;23.30;82.60;;;;;;5017543;28;20021;-82
2023/06/19 08:15:03;;;;;;;6.53;5.85;;;23.40;82.60;;;;;;5017626;28;20194;-82
2023/06/19 08:17:28;;;;;;;6.65;6.05;;;23.50;82.20;;;;;;5033880;28;20109;-82
2023/06/19 08:19:54;;;;;;;6.75;6.15;;;23.60;82.00;;;;;;5034311;28;20033;-82
2023/06/19 08:22:24;;;;;;;6.97;5.93;;;23.60;81.70;;;;;;5034821;28;20030;-82
2023/06/19 08:24:49;;;;;;;5.47;4.97;;;23.60;81.50;;;;;;5001844;28;20030;-83
2023/06/19 08:27:15;;;;;;;6.57;5.57;;;23.60;81.40;;;;;;5016832;28;20280;-83
2023/06/19 08:29:43;;;;;;;7.35;6.60;;;23.70;81.30;;;;;;5031908;28;20049;-82
2023/06/19 08:32:09;;;;;;;7.43;6.72;;;23.70;81.40;;;;;;5000375;28;20064;-83
2023/06/19 08:34:35;;;;;;;7.70;6.28;;;23.70;81.10;;;;;;5033116;28;20021;-83
2023/06/19 08:37:01;;;;;;;6.70;6.10;;;23.60;81.00;;;;;;5000655;28;20064;-83
2023/06/19 08:39:27;;;;;;;8.43;6.63;;;23.70;81.60;;;;;;5000927;28;20132;-82
2023/06/19 08:41:53;;;;;;;7.25;6.55;;;23.70;80.90;;;;;;5033556;28;20121;-82
2023/06/19 08:44:19;;;;;;;7.82;6.10;;;23.70;80.90;;;;;;5016863;28;20091;-82
2023/06/19 08:46:47;;;;;;;7.60;6.50;;;23.70;81.10;;;;;;5017032;28;20033;-82
2023/06/19 08:49:13;;;;;;;7.07;6.30;;;23.80;81.10;;;;;;5016396;28;20029;-82
2023/06/19 08:51:40;;;;;;;6.43;5.82;;;23.80;81.20;;;;;;5034273;28;20033;-82
2023/06/19 08:54:08;;;;;;;6.95;6.35;;;23.90;81.10;;;;;;5033528;28;20072;-82
2023/06/19 08:56:35;;;;;;;7.35;6.18;;;24.00;81.10;;;;;;5033117;28;20071;-83
2023/06/19 08:59:12;;;;;;;6.38;5.78;;;24.10;81.10;;;;;;5033022;28;20037;-83
2023/06/19 09:01:38;;;;;;;7.20;6.38;;;24.10;80.90;;;;;;5033218;28;20063;-83
2023/06/19 09:04:13;;;;;;;6.68;6.07;;;24.20;80.90;;;;;;5034013;28;20099;-83
2023/06/19 09:06:52;;;;;;;7.43;5.93;;;24.30;80.80;;;;;;5034547;28;20037;-83
2023/06/19 09:09:20;;;;;;;6.90;6.20;;;24.30;80.90;;;;;;5033200;28;20485;-82
2023/06/19 09:12:03;;;;;;;7.00;5.80;;;24.40;80.90;;;;;;5034373;28;20052;-83
2023/06/19 09:14:40;;;;;;;6.60;6.00;;;24.40;80.90;;;;;;5032863;28;20152;-83
2023/06/19 09:17:10;;;;;;;7.15;6.55;;;24.50;80.60;;;;;;5034673;28;20109;-83
2023/06/19 09:19:36;;;;;;;7.20;6.40;;;24.50;80.40;;;;;;5033075;28;20467;-83
2023/06/19 09:22:08;;;;;;;6.80;6.10;;;24.50;80.30;;;;;;5034547;28;20029;-83
2023/06/19 09:24:41;;;;;;;7.53;6.63;;;24.50;80.40;;;;;;5020879;28;20120;-82
2023/06/19 09:27:17;;;;;;;7.10;6.40;;;24.50;80.40;;;;;;5058191;28;20009;-82
2023/06/19 09:29:44;;;;;;;7.10;6.38;;;24.60;80.50;;;;;;5058091;28;20029;-82
2023/06/19 09:32:26;;;;;;;6.53;5.93;;;24.60;80.50;;;;;;5058164;28;20025;-82
2023/06/19 09:34:54;;;;;;;6.65;6.05;;;24.70;80.30;;;;;;5057025;28;20009;-83
2023/06/19 09:37:30;;;;;;;8.43;7.20;;;24.70;80.20;;;;;;5056711;28;20044;-83
2023/06/19 09:40:00;;;;;;;7.47;6.68;;;24.80;80.00;;;;;;5034771;28;20368;-82
2023/06/19 09:42:31;;;;;;;8.95;8.15;;;24.90;80.00;;;;;;5033356;28;20021;-83
2023/06/19 09:45:05;;;;;;;8.95;7.15;;;24.80;79.50;;;;;;5034474;28;20034;-83
2023/06/19 09:47:37;;;;;;;6.50;5.85;;;24.90;79.60;;;;;;5032787;28;20128;-82
2023/06/19 09:50:04;;;;;;;7.47;6.15;;;24.90;79.70;;;;;;5032549;28;20057;-83
2023/06/19 09:52:33;;;;;;;8.07;7.28;;;25.00;79.60;;;;;;5032347;28;20112;-83
2023/06/19 09:55:05;;;;;;;7.77;6.97;;;25.00;79.60;;;;;;5032653;28;20075;-83
2023/06/19 09:57:34;;;;;;;8.48;7.63;;;25.10;79.50;;;;;;5032134;28;20487;-83
2023/06/19 10:00:13;;;;;;;8.05;7.25;;;25.10;79.30;;;;;;5032521;28;20026;-82
2023/06/19 10:02:44;;;;;;;8.27;7.47;;;25.20;79.30;;;;;;5033540;28;20021;-83
2023/06/19 10:05:12;;;;;;;8.00;6.88;;;25.20;79.10;;;;;;5033167;28;20061;-82
2023/06/19 10:07:41;;;;;;;8.88;8.07;;;25.20;79.00;;;;;;5033293;28;20022;-83
2023/06/19 10:10:09;;;;;;;8.13;7.25;;;25.20;78.90;;;;;;5032138;28;20036;-83
2023/06/19 10:12:45;;;;;;;7.28;6.60;;;25.20;78.90;;;;;;5032790;28;20399;-83
2023/06/19 10:15:18;;;;;;;7.18;6.47;;;25.20;78.90;;;;;;5031520;28;20099;-83
2023/06/19 10:17:59;;;;;;;8.18;7.28;;;25.30;79.00;;;;;;5033258;28;20038;-83
2023/06/19 10:20:33;;;;;;;8.02;7.22;;;25.30;78.70;;;;;;5033300;28;20034;-83
2023/06/19 10:23:03;;;;;;;7.72;6.72;;;25.40;78.40;;;;;;5032139;28;20032;-83
2023/06/19 10:25:31;;;;;;;8.60;7.80;;;25.30;78.20;;;;;;5031791;28;20479;-83
2023/06/19 10:27:58;;;;;;;8.13;6.93;;;25.40;78.20;;;;;;5032038;28;20479;-83
2023/06/19 10:30:24;;;;;;;8.57;7.68;;;25.40;78.20;;;;;;5033221;28;20076;-83
2023/06/19 10:32:50;;;;;;;8.48;7.68;;;25.40;78.00;;;;;;5019290;28;20029;-83
2023/06/19 10:35:17;;;;;;;8.48;7.68;;;25.50;77.80;;;;;;5019277;28;20427;-83
2023/06/19 10:37:44;;;;;;;8.20;7.40;;;25.50;77.80;;;;;;5019028;28;20030;-83
2023/06/19 10:40:12;;;;;;;9.77;8.85;;;25.50;77.80;;;;;;5036976;28;20025;-83
2023/06/19 10:42:40;;;;;;;9.05;8.32;;;25.50;78.40;;;;;;5035271;28;20076;-83
2023/06/19 10:45:09;;;;;;;9.00;8.20;;;25.60;77.60;;;;;;5035760;28;20037;-83
2023/06/19 10:47:35;;;;;;;8.98;8.23;;;25.60;77.40;;;;;;5035204;28;20025;-83
2023/06/19 10:50:02;;;;;;;9.80;8.82;;;25.60;77.30;;;;;;5036965;28;20026;-83
2023/06/19 10:52:31;;;;;;;10.75;9.75;;;25.70;77.20;;;;;;5036626;28;20021;-83
2023/06/19 10:54:57;;;;;;;10.55;9.45;;;25.70;76.90;;;;;;5018985;28;20032;-82
2023/06/19 10:57:30;;;;;;;10.98;9.80;;;25.70;76.80;;;;;;5019023;28;20043;-83
2023/06/19 10:59:56;;;;;;;9.38;8.48;;;25.70;76.60;;;;;;5036774;28;20056;-83
2023/06/19 11:02:22;;;;;;;9.88;8.98;;;25.70;77.30;;;;;;5036748;28;20049;-83
2023/06/19 11:04:48;;;;;;;9.48;8.68;;;25.70;76.50;;;;;;5036534;28;20105;-83
2023/06/19 11:07:14;;;;;;;9.70;8.88;;;25.80;76.60;;;;;;5035586;28;20034;-83
2023/06/19 11:09:39;;;;;;;10.60;9.63;;;25.80;76.30;;;;;;5035359;28;20029;-83
2023/06/19 11:12:07;;;;;;;9.60;8.80;;;25.90;76.10;;;;;;5018788;28;20098;-83
2023/06/19 11:14:39;;;;;;;9.55;8.65;;;25.90;76.10;;;;;;5035127;28;20045;-83
2023/06/19 11:17:06;;;;;;;10.00;9.00;;;26.00;76.10;;;;;;5004073;28;20097;-83
2023/06/19 11:19:35;;;;;;;9.48;8.63;;;26.10;76.00;;;;;;5036982;28;20033;-83
2023/06/19 11:22:02;;;;;;;12.40;8.65;;;26.20;75.90;;;;;;5036857;28;20018;-83
2023/06/19 11:24:29;;;;;;;9.70;8.80;;;26.20;75.80;;;;;;5037375;28;20099;-83
2023/06/19 11:26:58;;;;;;;9.32;8.50;;;26.20;75.30;;;;;;5037682;28;20084;-83
2023/06/19 11:29:26;;;;;;;9.23;8.43;;;26.20;75.20;;;;;;5038232;28;20144;-83
2023/06/19 11:32:08;;;;;;;11.85;10.77;;;26.20;75.10;;;;;;5050179;28;20206;-83
2023/06/19 11:34:36;;;;;;;13.10;11.73;;;26.20;74.70;;;;;;5059972;28;20037;-81
2023/06/19 11:37:05;;;;;;;9.48;8.57;;;26.20;74.10;;;;;;5059345;28;20052;-81
2023/06/19 11:39:31;;;;;;;11.93;10.93;;;26.20;74.40;;;;;;5057158;28;20042;-82
2023/06/19 11:41:59;;;;;;;9.20;8.40;;;26.20;74.00;;;;;;5042520;28;20025;-82
2023/06/19 11:44:25;;;;;;;10.80;9.90;;;26.20;74.50;;;;;;5055305;28;20036;-82
2023/06/19 11:46:56;;;;;;;9.70;8.80;;;26.20;74.30;;;;;;5036111;28;20462;-82
2023/06/19 11:49:21;;;;;;;10.15;8.77;;;26.20;74.20;;;;;;5019694;28;20033;-82
2023/06/19 11:51:47;;;;;;;9.45;8.57;;;26.30;74.20;;;;;;5034393;28;20052;-83
2023/06/19 11:54:14;;;;;;;9.70;8.38;;;26.30;73.80;;;;;;5034565;28;20030;-82
2023/06/19 11:56:40;;;;;;;9.45;8.55;;;26.30;73.80;;;;;;5035873;28;20029;-82
2023/06/19 11:59:08;;;;;;;9.27;8.38;;;26.40;73.80;;;;;;5034389;28;20029;-83
2023/06/19 12:01:34;;;;;;;8.93;8.13;;;26.40;73.70;;;;;;5035333;28;20552;-83
2023/06/19 12:04:01;;;;;;;8.75;7.85;;;26.40;73.70;;;;;;5035456;28;20479;-83
2023/06/19 12:06:28;;;;;;;9.60;7.00;;;26.40;73.60;;;;;;5035550;28;20025;-83
2023/06/19 12:08:54;;;;;;;10.77;8.80;;;26.50;73.40;;;;;;5035527;28;20025;-83
2023/06/19 12:11:20;;;;;;;8.77;7.97;;;26.50;73.10;;;;;;5035462;28;20034;-83
2023/06/19 12:13:45;;;;;;;10.73;8.55;;;26.50;73.00;;;;;;5042440;28;20489;-83
2023/06/19 12:16:11;;;;;;;8.55;7.65;;;26.50;72.80;;;;;;5057366;28;20095;-82
2023/06/19 12:18:37;;;;;;;8.57;7.78;;;26.50;72.60;;;;;;5040401;28;20407;-82
2023/06/19 12:21:06;;;;;;;8.40;7.60;;;26.50;72.60;;;;;;5074902;28;20109;-83
2023/06/19 12:23:32;;;;;;;10.23;7.85;;;26.50;72.40;;;;;;5057733;28;20036;-83
2023/06/19 12:25:58;;;;;;;7.32;6.60;;;26.60;72.30;;;;;;5074815;28;20025;-83
2023/06/19 12:28:25;;;;;;;7.80;7.05;;;26.60;72.20;;;;;;5057182;28;20039;-82
2023/06/19 12:30:51;;;;;;;8.23;7.40;;;26.60;72.10;;;;;;5057381;28;20146;-83
2023/06/19 12:33:20;;;;;;;8.25;7.45;;;26.60;71.70;;;;;;5056565;28;20385;-83
2023/06/19 12:35:47;;;;;;;7.57;6.78;;;26.70;71.50;;;;;;5074632;28;20054;-83
2023/06/19 12:38:12;;;;;;;7.70;6.90;;;26.70;71.60;;;;;;5074403;28;20461;-83
2023/06/19 12:40:38;;;;;;;7.82;7.03;;;26.70;71.60;;;;;;5056849;28;20037;-83
2023/06/19 12:43:05;;;;;;;7.47;6.70;;;26.80;71.60;;;;;;5074352;28;20024;-83
2023/06/19 12:45:30;;;;;;;7.03;6.32;;;26.80;71.60;;;;;;5056552;28;20032;-83